Time;durP1;ratioP1;P1;durP2;ratioP2;P2;SDS_P1;SDS_P2;PMS_P1;PMS_P2;Temp;Humidity;BMP_temperature;BMP_pressure;BME280_temperature;BME280_humidity;BME280_pressure;Samples;Min_cycle;Max_cycle;Signal;HPM_P1;HPM_P2
2022/03/05 00:00:03;;;;;;;1.20;1.10;;;;;;;;;;7325222;19;153600;-16
2022/03/05 00:02:43;;;;;;;2.17;1.55;;;;;;;;;;7323885;19;161567;-15
2022/03/05 00:05:16;;;;;;;1.42;1.20;;;;;;;;;;7321388;19;162556;-14
2022/03/05 00:07:47;;;;;;;1.70;1.27;;;;;;;;;;7321898;19;154441;-14
2022/03/05 00:10:19;;;;;;;2.72;1.20;;;;;;;;;;7321482;19;154164;-16
2022/03/05 00:12:51;;;;;;;1.58;1.27;;;;;;;;;;7317418;19;162083;-15
2022/03/05 00:15:23;;;;;;;1.58;1.20;;;;;;;;;;7321281;19;162340;-15
2022/03/05 00:17:59;;;;;;;1.38;1.08;;;;;;;;;;7320318;19;154153;-16
2022/03/05 00:20:30;;;;;;;1.17;1.08;;;;;;;;;;7321793;19;153693;-16
2022/03/05 00:23:01;;;;;;;1.30;1.20;;;;;;;;;;7319771;19;161814;-15
2022/03/05 00:25:33;;;;;;;1.95;1.40;;;;;;;;;;7320700;19;162239;-14
2022/03/05 00:28:04;;;;;;;1.30;1.20;;;;;;;;;;7322124;19;154026;-14
2022/03/05 00:30:35;;;;;;;2.50;1.25;;;;;;;;;;7321730;19;153476;-15
2022/03/05 00:33:09;;;;;;;1.50;1.27;;;;;;;;;;7317386;19;162014;-15
2022/03/05 00:35:40;;;;;;;1.27;1.17;;;;;;;;;;7318539;19;162554;-14
2022/03/05 00:38:12;;;;;;;1.38;1.27;;;;;;;;;;7321895;19;153975;-14
2022/03/05 00:40:44;;;;;;;2.10;1.50;;;;;;;;;;7322748;19;154259;-14
2022/03/05 00:43:16;;;;;;;1.42;1.05;;;;;;;;;;7321421;19;161854;-14
2022/03/05 00:45:47;;;;;;;1.90;1.17;;;;;;;;;;7324057;19;162605;-13
2022/03/05 00:48:22;;;;;;;1.70;1.50;;;;;;;;;;7324519;19;153978;-16
2022/03/05 00:50:53;;;;;;;1.15;1.10;;;;;;;;;;7320859;19;153599;-15
2022/03/05 00:53:26;;;;;;;1.27;1.10;;;;;;;;;;7317554;19;161956;-15
2022/03/05 00:55:58;;;;;;;4.28;1.33;;;;;;;;;;7328322;19;162388;-15
2022/03/05 00:58:29;;;;;;;1.30;1.20;;;;;;;;;;7330405;19;154020;-15
2022/03/05 01:01:00;;;;;;;1.23;1.00;;;;;;;;;;7332481;19;153558;-15
2022/03/05 01:03:34;;;;;;;1.52;1.42;;;;;;;;;;7330349;19;161939;-15
2022/03/05 10:13:44;;;;;;;0.82;0.82;;;;;;;;;;7368517;19;132521;-14
2022/03/05 10:16:29;;;;;;;1.13;0.75;;;;;;;;;;7364528;19;153514;-13
2022/03/05 10:19:17;;;;;;;1.00;0.90;;;;;;;;;;7366359;19;161932;-14
2022/03/05 10:21:59;;;;;;;1.08;0.98;;;;;;;;;;7363268;19;162306;-15
2022/03/05 10:24:36;;;;;;;3.10;0.70;;;;;;;;;;7364613;19;154149;-15
2022/03/05 10:27:09;;;;;;;1.58;1.23;;;;;;;;;;7364615;19;153502;-14
2022/03/05 10:29:43;;;;;;;12.25;1.65;;;;;;;;;;7364206;19;162397;-14
2022/03/05 10:32:16;;;;;;;1.33;0.85;;;;;;;;;;7364039;19;162538;-13
2022/03/05 10:34:57;;;;;;;1.60;0.70;;;;;;;;;;7364371;19;154120;-14
2022/03/05 10:37:29;;;;;;;1.83;0.82;;;;;;;;;;7364464;19;153631;-14
2022/03/05 10:40:01;;;;;;;0.80;0.80;;;;;;;;;;7364014;19;161840;-14
2022/03/05 10:42:32;;;;;;;1.13;0.80;;;;;;;;;;7365709;19;162373;-15
2022/03/05 10:45:11;;;;;;;4.40;0.98;;;;;;;;;;7364100;19;154088;-15
2022/03/05 10:47:45;;;;;;;0.98;0.82;;;;;;;;;;7364027;19;153540;-13
2022/03/05 10:50:27;;;;;;;0.98;0.90;;;;;;;;;;7363990;19;161697;-13
2022/03/05 10:53:01;;;;;;;1.85;0.90;;;;;;;;;;7363994;19;162895;-13
2022/03/05 10:55:39;;;;;;;0.80;0.80;;;;;;;;;;7364875;19;153960;-15
2022/03/05 10:58:14;;;;;;;1.33;1.10;;;;;;;;;;7363639;19;153500;-14
2022/03/05 11:00:50;;;;;;;3.20;0.80;;;;;;;;;;7363295;19;161826;-14
2022/03/05 11:03:21;;;;;;;1.15;0.93;;;;;;;;;;7361128;19;162324;-14
2022/03/05 11:05:53;;;;;;;1.00;0.90;;;;;;;;;;7363685;19;154097;-13
2022/03/05 11:08:24;;;;;;;0.80;0.75;;;;;;;;;;7363566;19;153535;-15
2022/03/05 11:10:56;;;;;;;1.00;0.90;;;;;;;;;;7364788;19;161836;-13
2022/03/05 11:13:28;;;;;;;1.40;1.00;;;;;;;;;;7346361;19;162392;-14
2022/03/05 11:16:02;;;;;;;1.07;0.80;;;;;;;;;;7334645;19;154215;-14
2022/03/05 11:18:34;;;;;;;1.00;0.80;;;;;;;;;;7334294;19;153620;-15
2022/03/05 11:21:06;;;;;;;1.13;0.90;;;;;;;;;;7334125;19;162117;-14
2022/03/05 11:23:40;;;;;;;1.63;0.90;;;;;;;;;;7331843;19;162655;-14
2022/03/05 11:26:13;;;;;;;0.93;0.93;;;;;;;;;;7336280;19;153941;-14
2022/03/05 11:28:48;;;;;;;0.93;0.93;;;;;;;;;;7334066;19;153565;-14
2022/03/05 11:31:25;;;;;;;1.27;0.80;;;;;;;;;;7333686;19;161785;-15
2022/03/05 11:33:56;;;;;;;1.15;0.70;;;;;;;;;;7332505;19;162295;-14
2022/03/05 11:36:32;;;;;;;1.15;1.10;;;;;;;;;;7333702;19;154077;-15
2022/03/05 11:39:31;;;;;;;0.75;0.75;;;;;;;;;;7333607;19;153501;-14
2022/03/05 11:42:04;;;;;;;0.80;0.80;;;;;;;;;;7335134;19;161888;-13
2022/03/05 11:44:42;;;;;;;0.90;0.90;;;;;;;;;;7333334;19;162429;-14
2022/03/05 11:47:31;;;;;;;0.95;0.70;;;;;;;;;;7333521;19;154142;-13
2022/03/05 11:50:16;;;;;;;0.82;0.73;;;;;;;;;;7333619;19;153498;-14
2022/03/05 11:53:18;;;;;;;1.42;0.90;;;;;;;;;;7335336;19;162057;-14
2022/03/05 11:55:50;;;;;;;1.05;0.70;;;;;;;;;;7330175;19;162774;-14
2022/03/05 11:58:35;;;;;;;2.40;0.98;;;;;;;;;;7335430;19;154213;-13
2022/03/05 12:01:41;;;;;;;0.88;0.88;;;;;;;;;;7336676;19;153795;-13
2022/03/05 12:04:23;;;;;;;0.80;0.80;;;;;;;;;;7331229;19;161966;-13
2022/03/05 12:06:58;;;;;;;1.05;0.85;;;;;;;;;;7335645;19;162447;-13
2022/03/05 12:09:44;;;;;;;1.52;0.80;;;;;;;;;;7336792;19;153933;-14
2022/03/05 12:12:18;;;;;;;0.95;0.80;;;;;;;;;;7335087;19;153796;-13
2022/03/05 12:15:10;;;;;;;1.45;0.70;;;;;;;;;;7334136;19;162040;-16
2022/03/05 12:17:50;;;;;;;0.88;0.80;;;;;;;;;;7335767;19;162537;-15
2022/03/05 12:20:29;;;;;;;1.83;1.00;;;;;;;;;;7334958;19;153940;-14
2022/03/05 12:23:04;;;;;;;1.35;0.70;;;;;;;;;;7335495;19;153527;-15
2022/03/05 12:25:37;;;;;;;0.60;0.60;;;;;;;;;;7329138;19;162137;-14
2022/03/05 12:28:14;;;;;;;1.00;1.00;;;;;;;;;;7334048;19;162509;-15
2022/03/05 12:30:46;;;;;;;1.15;0.88;;;;;;;;;;7335456;19;153951;-15
2022/03/05 12:33:19;;;;;;;1.10;0.80;;;;;;;;;;7335346;19;153513;-16
2022/03/05 12:35:54;;;;;;;1.15;0.70;;;;;;;;;;7333190;19;161849;-15
2022/03/05 12:38:25;;;;;;;0.60;0.60;;;;;;;;;;7334039;19;162441;-14
2022/03/05 12:40:59;;;;;;;1.05;0.75;;;;;;;;;;7335392;19;153925;-16
2022/03/05 12:43:31;;;;;;;5.10;0.88;;;;;;;;;;7334053;19;153604;-15
2022/03/05 12:46:05;;;;;;;0.82;0.82;;;;;;;;;;7333146;19;162221;-15
2022/03/05 12:48:36;;;;;;;1.55;1.00;;;;;;;;;;7333961;19;162357;-15
2022/03/05 12:51:12;;;;;;;1.13;0.80;;;;;;;;;;7335449;19;155335;-15
2022/03/05 12:53:43;;;;;;;1.10;0.60;;;;;;;;;;7335017;19;153521;-15
2022/03/05 12:56:16;;;;;;;1.20;0.85;;;;;;;;;;7333687;19;161956;-15
2022/03/05 12:58:48;;;;;;;1.17;0.70;;;;;;;;;;7334215;19;162390;-15
2022/03/05 13:01:19;;;;;;;1.00;0.70;;;;;;;;;;7335611;19;153940;-15
2022/03/05 13:03:50;;;;;;;0.70;0.70;;;;;;;;;;7331373;19;153619;-16
2022/03/05 13:06:25;;;;;;;1.88;0.80;;;;;;;;;;7333418;19;162017;-16
2022/03/05 13:08:57;;;;;;;0.70;0.70;;;;;;;;;;7334170;19;162378;-15
2022/03/05 13:11:35;;;;;;;0.60;0.60;;;;;;;;;;7332870;19;154030;-16
2022/03/05 13:14:06;;;;;;;0.90;0.90;;;;;;;;;;7332072;19;153510;-15
2022/03/05 13:16:41;;;;;;;1.60;0.90;;;;;;;;;;7333545;19;161832;-15
2022/03/05 13:19:14;;;;;;;1.23;0.90;;;;;;;;;;7333870;19;162542;-16
2022/03/05 13:21:49;;;;;;;0.75;0.55;;;;;;;;;;7327471;19;154116;-14
2022/03/05 13:24:22;;;;;;;0.65;0.65;;;;;;;;;;7328565;19;153667;-14
2022/03/05 13:26:55;;;;;;;0.77;0.77;;;;;;;;;;7333336;19;161613;-15
2022/03/05 13:29:26;;;;;;;;;;;;;;;;;;7328811;19;162459;-15
2022/03/05 13:32:02;;;;;;;0.55;0.55;;;;;;;;;;7333369;19;154885;-16
2022/03/05 13:34:33;;;;;;;0.60;0.60;;;;;;;;;;7333448;19;153770;-14
2022/03/05 13:37:12;;;;;;;1.35;0.70;;;;;;;;;;7331515;19;162056;-14
2022/03/05 13:39:43;;;;;;;0.80;0.68;;;;;;;;;;7331670;19;162789;-14
2022/03/05 13:42:18;;;;;;;1.23;0.80;;;;;;;;;;7332507;19;154117;-13
2022/03/05 13:44:49;;;;;;;0.70;0.70;;;;;;;;;;7330351;19;153521;-13
2022/03/05 13:47:21;;;;;;;0.73;0.70;;;;;;;;;;7331564;19;161884;-14
2022/03/05 13:49:52;;;;;;;0.60;0.60;;;;;;;;;;7331123;19;163074;-14
2022/03/05 13:52:26;;;;;;;0.80;0.80;;;;;;;;;;7331863;19;153961;-13
2022/03/05 13:55:09;;;;;;;0.70;0.70;;;;;;;;;;7331874;19;153659;-12
2022/03/05 13:57:40;;;;;;;0.93;0.80;;;;;;;;;;7331055;19;161742;-13
2022/03/05 14:00:14;;;;;;;0.60;0.60;;;;;;;;;;7331001;19;162423;-14
2022/03/05 14:02:46;;;;;;;1.40;0.60;;;;;;;;;;7331599;19;153989;-14
2022/03/05 14:05:20;;;;;;;0.80;0.80;;;;;;;;;;7329497;19;153550;-14
2022/03/05 14:07:59;;;;;;;0.60;0.60;;;;;;;;;;7331171;19;161799;-15
2022/03/05 14:10:32;;;;;;;1.23;0.88;;;;;;;;;;7331848;19;162392;-15
2022/03/05 14:13:04;;;;;;;0.60;0.60;;;;;;;;;;7329821;19;154459;-14
2022/03/05 14:15:35;;;;;;;1.85;0.80;;;;;;;;;;7332190;19;153699;-15
2022/03/05 14:18:08;;;;;;;0.55;0.52;;;;;;;;;;7331823;19;162006;-13
2022/03/05 14:20:43;;;;;;;;;;;;;;;;;;7330913;19;162213;-14
2022/03/05 14:23:19;;;;;;;0.95;0.60;;;;;;;;;;7331084;19;154046;-13
2022/03/05 14:25:53;;;;;;;0.77;0.75;;;;;;;;;;7328501;19;153557;-14
2022/03/05 14:28:27;;;;;;;0.50;0.50;;;;;;;;;;7330629;19;161825;-13
2022/03/05 14:30:58;;;;;;;0.88;0.70;;;;;;;;;;7330884;19;162964;-15
2022/03/05 14:33:30;;;;;;;1.13;0.60;;;;;;;;;;7331488;19;154213;-15
2022/03/05 14:36:01;;;;;;;0.80;0.80;;;;;;;;;;7331101;19;153489;-14
2022/03/05 14:38:37;;;;;;;0.93;0.73;;;;;;;;;;7331086;19;161948;-14
2022/03/05 14:41:09;;;;;;;0.60;0.60;;;;;;;;;;7330395;19;162446;-14
2022/03/05 14:43:40;;;;;;;0.60;0.60;;;;;;;;;;7327599;19;154082;-15
2022/03/05 14:46:14;;;;;;;0.80;0.50;;;;;;;;;;7325426;19;153579;-14
2022/03/05 14:48:46;;;;;;;2.25;0.90;;;;;;;;;;7332556;19;162020;-14
2022/03/05 14:51:17;;;;;;;1.42;0.70;;;;;;;;;;7334924;19;162339;-14
2022/03/05 14:53:50;;;;;;;5.55;1.23;;;;;;;;;;7337302;19;154006;-14
2022/03/05 14:56:22;;;;;;;35.00;17.92;;;;;;;;;;7336882;19;153663;-14
2022/03/05 14:58:54;;;;;;;86.35;35.50;;;;;;;;;;7335566;19;161910;-15
2022/03/05 15:01:26;;;;;;;38.95;15.73;;;;;;;;;;7337193;19;162743;-16
2022/03/05 15:03:57;;;;;;;18.70;8.70;;;;;;;;;;7337962;19;153961;-15
2022/03/05 15:06:28;;;;;;;11.15;5.88;;;;;;;;;;7330798;19;153573;-15
2022/03/05 15:09:02;;;;;;;13.02;5.80;;;;;;;;;;7337195;19;161738;-15
2022/03/05 15:11:34;;;;;;;12.00;6.13;;;;;;;;;;7335575;19;162382;-15
2022/03/05 15:14:05;;;;;;;14.77;7.20;;;;;;;;;;7335994;19;154012;-15
2022/03/05 15:16:37;;;;;;;15.23;7.30;;;;;;;;;;7337076;19;153749;-15
2022/03/05 15:19:08;;;;;;;14.80;7.15;;;;;;;;;;7337564;19;162134;-14
2022/03/05 15:21:40;;;;;;;14.80;7.57;;;;;;;;;;7334425;19;162611;-14
2022/03/05 15:24:13;;;;;;;16.15;7.85;;;;;;;;;;7334676;19;154063;-14
2022/03/05 15:26:45;;;;;;;15.55;6.57;;;;;;;;;;7334368;19;153835;-15
2022/03/05 15:29:17;;;;;;;15.60;7.38;;;;;;;;;;7336808;19;161908;-14
2022/03/05 15:31:49;;;;;;;14.55;7.10;;;;;;;;;;7333831;19;162838;-15
2022/03/05 15:34:21;;;;;;;15.05;8.13;;;;;;;;;;7336152;19;154048;-16
2022/03/05 15:36:53;;;;;;;15.38;6.80;;;;;;;;;;7336752;19;153947;-15
2022/03/05 15:39:28;;;;;;;12.90;7.63;;;;;;;;;;7337345;19;161865;-15
2022/03/05 15:41:59;;;;;;;13.68;7.07;;;;;;;;;;7337019;19;162417;-25
2022/03/05 15:44:31;;;;;;;13.02;6.75;;;;;;;;;;7336681;19;154058;-16
2022/03/05 15:47:03;;;;;;;13.52;6.93;;;;;;;;;;7333858;19;153402;-16
2022/03/05 15:49:34;;;;;;;12.75;6.60;;;;;;;;;;7333794;19;162313;-15
2022/03/05 15:52:07;;;;;;;13.00;6.35;;;;;;;;;;7335176;19;162386;-12
2022/03/05 15:54:41;;;;;;;13.97;6.87;;;;;;;;;;7335282;19;153984;-16
2022/03/05 15:57:12;;;;;;;17.10;6.85;;;;;;;;;;7337411;19;153491;-16
2022/03/05 15:59:44;;;;;;;16.08;7.53;;;;;;;;;;7333835;19;161999;-14
2022/03/05 16:02:15;;;;;;;18.73;10.55;;;;;;;;;;7333877;19;162384;-16
2022/03/05 16:04:47;;;;;;;16.27;8.07;;;;;;;;;;7336737;19;154271;-15
2022/03/05 16:07:18;;;;;;;18.00;7.68;;;;;;;;;;7334862;19;153528;-15
2022/03/05 16:09:53;;;;;;;14.63;7.22;;;;;;;;;;7334069;19;162169;-15
2022/03/05 16:12:24;;;;;;;14.40;7.25;;;;;;;;;;7333926;19;162393;-15
2022/03/05 16:14:55;;;;;;;20.27;8.13;;;;;;;;;;7336629;19;154041;-13
2022/03/05 16:17:27;;;;;;;17.73;7.78;;;;;;;;;;7336264;19;153833;-13
2022/03/05 16:19:58;;;;;;;18.40;8.73;;;;;;;;;;7333682;19;162103;-15
2022/03/05 16:22:30;;;;;;;19.73;9.02;;;;;;;;;;7334600;19;162568;-14
2022/03/05 16:25:03;;;;;;;13.57;7.35;;;;;;;;;;7335816;19;154002;-13
2022/03/05 16:27:35;;;;;;;16.38;8.23;;;;;;;;;;7330738;19;153532;-15
2022/03/05 16:30:10;;;;;;;12.50;7.00;;;;;;;;;;7333743;19;161566;-15
2022/03/05 16:32:42;;;;;;;17.63;8.55;;;;;;;;;;7334898;19;162066;-16
2022/03/05 16:35:15;;;;;;;16.40;7.75;;;;;;;;;;7334327;19;154034;-15
2022/03/05 16:37:47;;;;;;;18.13;7.72;;;;;;;;;;7333178;19;154100;-20
2022/03/05 16:40:24;;;;;;;13.68;7.60;;;;;;;;;;7334082;19;161703;-13
2022/03/05 16:42:58;;;;;;;15.38;8.05;;;;;;;;;;7333677;19;162391;-13
2022/03/05 16:45:31;;;;;;;13.98;7.20;;;;;;;;;;7329340;19;154222;-18
2022/03/05 16:48:03;;;;;;;13.20;7.05;;;;;;;;;;7324418;19;153572;-14
2022/03/05 16:50:36;;;;;;;15.48;7.10;;;;;;;;;;7324877;19;161972;-14
2022/03/05 16:53:07;;;;;;;12.73;6.43;;;;;;;;;;7326912;19;163190;-14
2022/03/05 16:55:42;;;;;;;15.23;6.93;;;;;;;;;;7324471;19;154101;-14
2022/03/05 16:58:13;;;;;;;11.18;6.40;;;;;;;;;;7325429;19;153507;-14
2022/03/05 17:00:45;;;;;;;13.20;6.65;;;;;;;;;;7326069;19;161905;-16
2022/03/05 17:03:17;;;;;;;14.55;6.50;;;;;;;;;;7326013;19;162360;-14
2022/03/05 17:05:48;;;;;;;14.70;7.28;;;;;;;;;;7324183;19;154260;-14
2022/03/05 17:08:20;;;;;;;11.45;6.68;;;;;;;;;;7325181;19;153773;-15
2022/03/05 17:10:54;;;;;;;13.45;7.00;;;;;;;;;;7323495;19;161459;-14
2022/03/05 17:13:27;;;;;;;12.00;6.75;;;;;;;;;;7323898;19;162524;-14
2022/03/05 17:16:00;;;;;;;11.60;6.07;;;;;;;;;;7324436;19;154158;-15
2022/03/05 17:18:32;;;;;;;11.23;5.90;;;;;;;;;;7325208;19;153536;-15
2022/03/05 17:21:06;;;;;;;11.85;6.57;;;;;;;;;;7326036;19;161815;-16
2022/03/05 17:23:37;;;;;;;11.50;6.35;;;;;;;;;;7322888;19;162908;-15
2022/03/05 17:26:12;;;;;;;14.98;6.35;;;;;;;;;;7323886;19;153938;-15
2022/03/05 17:28:43;;;;;;;10.30;5.40;;;;;;;;;;7325830;19;153614;-14
2022/03/05 17:31:15;;;;;;;10.38;5.40;;;;;;;;;;7326656;19;161828;-13
2022/03/05 17:34:10;;;;;;;9.27;5.65;;;;;;;;;;7322133;19;163473;-14
2022/03/05 17:36:41;;;;;;;11.07;6.28;;;;;;;;;;7323658;19;153960;-15
2022/03/05 17:39:13;;;;;;;10.80;5.25;;;;;;;;;;7326043;19;153545;-14
2022/03/05 17:41:48;;;;;;;;;;;;;;;;;;7325062;19;161828;-14
2022/03/05 17:44:20;;;;;;;11.27;6.47;;;;;;;;;;7324031;19;162570;-14
2022/03/05 17:46:54;;;;;;;10.55;5.03;;;;;;;;;;7322190;19;154428;-14
2022/03/05 17:49:27;;;;;;;10.00;5.72;;;;;;;;;;7323354;19;153578;-14
2022/03/05 17:51:59;;;;;;;10.75;5.88;;;;;;;;;;7323991;19;162021;-15
2022/03/05 17:54:31;;;;;;;8.60;5.43;;;;;;;;;;7324023;19;162550;-14
2022/03/05 17:57:06;;;;;;;9.93;6.03;;;;;;;;;;7323557;19;154001;-15
2022/03/05 17:59:38;;;;;;;12.27;6.00;;;;;;;;;;7322267;19;153792;-14
2022/03/05 18:02:09;;;;;;;9.35;5.35;;;;;;;;;;7321924;19;161915;-14
2022/03/05 18:04:41;;;;;;;9.85;5.18;;;;;;;;;;7322719;19;162466;-14
2022/03/05 18:07:13;;;;;;;9.02;5.53;;;;;;;;;;7324080;19;156052;-14
2022/03/05 18:09:46;;;;;;;8.70;5.32;;;;;;;;;;7322608;19;153872;-15
2022/03/05 18:12:20;;;;;;;8.70;5.07;;;;;;;;;;7321981;19;162119;-15
2022/03/05 18:14:52;;;;;;;8.45;4.63;;;;;;;;;;7324513;19;162295;-20
2022/03/05 18:17:25;;;;;;;8.73;4.97;;;;;;;;;;7324169;19;154074;-15
2022/03/05 18:19:57;;;;;;;9.27;5.60;;;;;;;;;;7321313;19;153711;-14
2022/03/05 18:22:47;;;;;;;7.82;5.47;;;;;;;;;;7322394;19;161864;-14
2022/03/05 18:25:19;;;;;;;5.78;3.55;;;;;;;;;;7330135;19;162509;-15
2022/03/05 18:27:56;;;;;;;7.40;3.45;;;;;;;;;;7330001;19;154231;-15
2022/03/05 18:30:27;;;;;;;11.55;4.15;;;;;;;;;;7330630;19;153531;-16
2022/03/05 18:32:59;;;;;;;4.85;1.85;;;;;;;;;;7329831;19;162237;-14
2022/03/05 18:35:31;;;;;;;5.43;2.00;;;;;;;;;;7330645;19;162373;-15
2022/03/05 18:38:02;;;;;;;4.85;2.38;;;;;;;;;;7329862;19;153959;-15
2022/03/05 18:40:35;;;;;;;9.23;2.17;;;;;;;;;;7329418;19;153613;-16
2022/03/05 18:43:09;;;;;;;5.07;2.55;;;;;;;;;;7326806;19;161769;-13
2022/03/05 18:45:44;;;;;;;3.35;1.92;;;;;;;;;;7328401;19;162585;-14
2022/03/05 18:48:16;;;;;;;6.85;2.25;;;;;;;;;;7327691;19;154009;-13
2022/03/05 18:50:48;;;;;;;9.37;2.47;;;;;;;;;;7329643;19;153632;-14
2022/03/05 18:53:20;;;;;;;3.75;2.25;;;;;;;;;;7330442;19;162317;-15
2022/03/05 18:55:53;;;;;;;5.85;2.78;;;;;;;;;;7327271;19;162434;-15
2022/03/05 18:58:28;;;;;;;6.25;2.25;;;;;;;;;;7328969;19;154125;-13
2022/03/05 19:01:00;;;;;;;5.82;2.25;;;;;;;;;;7329937;19;153554;-15
2022/03/05 19:03:34;;;;;;;4.07;2.50;;;;;;;;;;7330436;19;163154;-14
2022/03/05 19:06:06;;;;;;;4.38;2.05;;;;;;;;;;7328216;19;162384;-14
2022/03/05 19:08:37;;;;;;;3.72;1.92;;;;;;;;;;7327698;19;154188;-14
2022/03/05 19:11:09;;;;;;;5.03;1.98;;;;;;;;;;7329900;19;153468;-15
2022/03/05 19:13:43;;;;;;;2.55;1.60;;;;;;;;;;7326955;19;161844;-15
2022/03/05 19:16:15;;;;;;;3.45;1.88;;;;;;;;;;7327943;19;162404;-14
2022/03/05 19:18:47;;;;;;;4.03;1.80;;;;;;;;;;7329134;19;154209;-13
2022/03/05 19:21:19;;;;;;;1.83;1.45;;;;;;;;;;7330267;19;153549;-14
2022/03/05 19:23:50;;;;;;;4.40;1.77;;;;;;;;;;7325409;19;161942;-15
2022/03/05 19:26:22;;;;;;;3.75;1.67;;;;;;;;;;7326264;19;162383;-15
2022/03/05 19:28:56;;;;;;;2.88;1.50;;;;;;;;;;7327564;19;154022;-14
2022/03/05 19:31:28;;;;;;;3.88;1.63;;;;;;;;;;7330399;19;153835;-15
2022/03/05 19:34:00;;;;;;;2.90;1.50;;;;;;;;;;7326087;19;161834;-15
2022/03/05 19:36:32;;;;;;;2.47;1.40;;;;;;;;;;7326239;19;162424;-14
2022/03/05 19:39:03;;;;;;;3.00;1.20;;;;;;;;;;7327938;19;154099;-16
2022/03/05 19:41:35;;;;;;;2.15;1.20;;;;;;;;;;7327743;19;153726;-15
2022/03/05 19:44:09;;;;;;;2.10;1.20;;;;;;;;;;7326436;19;162107;-14
2022/03/05 19:46:41;;;;;;;1.80;1.27;;;;;;;;;;7326614;19;162558;-13
2022/03/05 19:49:13;;;;;;;2.80;1.13;;;;;;;;;;7325775;19;154079;-14
2022/03/05 19:51:44;;;;;;;2.80;1.13;;;;;;;;;;7324846;19;153849;-14
2022/03/05 19:54:16;;;;;;;3.95;1.20;;;;;;;;;;7325139;19;161888;-13
2022/03/05 19:56:47;;;;;;;1.95;1.17;;;;;;;;;;7327560;19;162368;-14
2022/03/05 19:59:21;;;;;;;0.95;0.90;;;;;;;;;;7328639;19;154057;-14
2022/03/05 20:01:55;;;;;;;4.57;1.10;;;;;;;;;;7326095;19;153486;-13
2022/03/05 20:04:26;;;;;;;3.13;1.48;;;;;;;;;;7326642;19;161962;-14
2022/03/05 20:06:58;;;;;;;3.78;1.52;;;;;;;;;;7327815;19;162739;-15
2022/03/05 20:09:29;;;;;;;2.30;1.50;;;;;;;;;;7326973;19;154065;-14
2022/03/05 20:12:01;;;;;;;1.98;1.13;;;;;;;;;;7325124;19;153891;-13
2022/03/05 20:14:35;;;;;;;1.15;1.08;;;;;;;;;;7326773;19;161973;-15
2022/03/05 20:17:07;;;;;;;1.58;1.30;;;;;;;;;;7325524;19;162681;-15
2022/03/05 20:19:39;;;;;;;4.38;1.70;;;;;;;;;;7322017;19;153990;-14
2022/03/05 20:22:10;;;;;;;2.70;1.25;;;;;;;;;;7321019;19;153672;-14
2022/03/05 20:24:41;;;;;;;3.95;1.83;;;;;;;;;;7323018;19;161823;-14
2022/03/05 20:27:14;;;;;;;2.92;1.38;;;;;;;;;;7321856;19;162777;-14
2022/03/05 20:29:48;;;;;;;5.50;1.33;;;;;;;;;;7320143;19;154835;-15
2022/03/05 20:32:20;;;;;;;1.98;1.40;;;;;;;;;;7321793;19;153725;-15
2022/03/05 20:34:51;;;;;;;1.73;1.35;;;;;;;;;;7321907;19;161751;-14
2022/03/05 20:37:23;;;;;;;2.05;1.27;;;;;;;;;;7323562;19;162491;-13
2022/03/05 20:39:54;;;;;;;3.00;1.30;;;;;;;;;;7320389;19;154188;-13
2022/03/05 20:42:26;;;;;;;101.80;42.90;;;;;;;;;;7324112;19;153750;-13
2022/03/05 20:45:00;;;;;;;138.60;60.40;;;;;;;;;;7322524;19;161728;-15
2022/03/05 20:47:32;;;;;;;191.60;81.30;;;;;;;;;;7322068;19;162614;-14
2022/03/05 20:50:04;;;;;;;217.80;90.30;;;;;;;;;;7321969;19;154028;-14
2022/03/05 20:52:35;;;;;;;177.82;73.10;;;;;;;;;;7324652;19;153797;-15
2022/03/05 20:55:08;;;;;;;124.20;53.72;;;;;;;;;;7323201;19;161947;-14
2022/03/05 20:57:40;;;;;;;109.47;45.63;;;;;;;;;;7323942;19;161960;-14
2022/03/05 21:00:18;;;;;;;122.10;51.55;;;;;;;;;;7320465;19;154020;-14
2022/03/05 21:02:50;;;;;;;106.40;45.10;;;;;;;;;;7321350;19;153718;-13
2022/03/05 21:05:32;;;;;;;103.50;44.30;;;;;;;;;;7322556;19;161806;-14
2022/03/05 21:08:04;;;;;;;94.68;40.90;;;;;;;;;;7319830;19;162458;-15
2022/03/05 21:10:35;;;;;;;106.53;45.92;;;;;;;;;;7319792;19;154045;-14
2022/03/05 21:13:07;;;;;;;86.85;38.20;;;;;;;;;;7320545;19;153765;-14
2022/03/05 21:15:41;;;;;;;96.55;39.17;;;;;;;;;;7324350;19;161726;-14
2022/03/05 21:18:13;;;;;;;91.88;40.40;;;;;;;;;;7321380;19;162411;-14
2022/03/05 21:20:44;;;;;;;93.78;40.00;;;;;;;;;;7334523;19;154097;-14
2022/03/05 21:23:16;;;;;;;83.50;39.88;;;;;;;;;;7335525;19;153771;-13
2022/03/05 21:25:47;;;;;;;118.88;54.25;;;;;;;;;;7322943;19;161984;-15
2022/03/05 21:28:19;;;;;;;177.07;76.35;;;;;;;;;;7333661;19;162379;-13
2022/03/05 21:30:54;;;;;;;149.77;65.03;;;;;;;;;;7330988;19;154016;-14
2022/03/05 21:44:33;;;;;;;123.63;62.20;;;;;;;;;;7368735;19;132552;-13
2022/03/05 21:47:05;;;;;;;119.07;57.95;;;;;;;;;;7366687;19;154405;-14
2022/03/05 21:49:37;;;;;;;122.32;56.45;;;;;;;;;;7368865;19;161811;-14
2022/03/05 21:52:09;;;;;;;115.43;54.53;;;;;;;;;;7364266;19;162626;-14
2022/03/05 21:54:41;;;;;;;120.40;55.60;;;;;;;;;;7365740;19;154093;-13
2022/03/05 21:57:12;;;;;;;118.07;53.97;;;;;;;;;;7368392;19;153806;-14
2022/03/05 21:59:47;;;;;;;118.28;52.28;;;;;;;;;;7367241;19;161840;-13
2022/03/05 22:02:19;;;;;;;110.57;51.50;;;;;;;;;;7365516;19;162410;-15
2022/03/05 22:04:51;;;;;;;105.27;48.10;;;;;;;;;;7365123;19;154322;-15
2022/03/05 22:07:22;;;;;;;105.03;48.70;;;;;;;;;;7364998;19;153615;-13
2022/03/05 22:09:54;;;;;;;96.57;48.17;;;;;;;;;;7365500;19;161552;-13
2022/03/05 22:12:26;;;;;;;92.22;47.20;;;;;;;;;;7364990;19;162343;-14
2022/03/05 22:15:00;;;;;;;91.18;45.00;;;;;;;;;;7367154;19;153885;-13
2022/03/05 22:17:32;;;;;;;100.20;44.50;;;;;;;;;;7365470;19;153474;-15
2022/03/05 22:20:04;;;;;;;95.45;43.65;;;;;;;;;;7365463;19;161855;-13
2022/03/05 22:22:36;;;;;;;92.37;43.43;;;;;;;;;;7364313;19;163177;-13
2022/03/05 22:25:09;;;;;;;85.57;41.80;;;;;;;;;;7362223;19;154117;-15
2022/03/05 22:27:44;;;;;;;88.97;42.35;;;;;;;;;;7365952;19;153593;-13
2022/03/05 22:30:19;;;;;;;88.63;40.70;;;;;;;;;;7362886;19;162047;-13
2022/03/05 22:32:51;;;;;;;87.78;41.80;;;;;;;;;;7363211;19;162834;-13
2022/03/05 22:35:23;;;;;;;83.20;39.13;;;;;;;;;;7367155;19;154027;-16
2022/03/05 22:37:55;;;;;;;79.22;37.92;;;;;;;;;;7358201;19;153849;-16
2022/03/05 22:40:27;;;;;;;84.63;38.77;;;;;;;;;;7361585;19;161981;-14
2022/03/05 22:42:59;;;;;;;79.65;36.53;;;;;;;;;;7363528;19;162269;-15
2022/03/05 22:45:34;;;;;;;78.63;37.28;;;;;;;;;;7337857;19;154151;-15
2022/03/05 22:48:05;;;;;;;84.18;38.17;;;;;;;;;;7339411;19;153822;-16
2022/03/05 22:50:37;;;;;;;69.22;33.88;;;;;;;;;;7334980;19;162107;-13
2022/03/05 22:53:09;;;;;;;59.80;28.55;;;;;;;;;;7336090;19;162465;-14
2022/03/05 22:55:41;;;;;;;45.97;21.05;;;;;;;;;;7338070;19;153973;-15
2022/03/05 22:58:13;;;;;;;48.13;24.63;;;;;;;;;;7334483;19;153665;-14
2022/03/05 23:01:18;;;;;;;46.90;22.48;;;;;;;;;;7336057;19;162009;-16
2022/03/05 23:06:34;;;;;;;52.42;25.05;;;;;;;;;;7335375;19;153846;-16
2022/03/05 23:11:50;;;;;;;55.53;26.63;;;;;;;;;;7336584;19;161967;-12
2022/03/05 23:14:22;;;;;;;51.92;24.60;;;;;;;;;;7332057;19;162404;-13
2022/03/05 23:16:56;;;;;;;52.78;26.20;;;;;;;;;;7336345;19;153859;-13
2022/03/05 23:19:28;;;;;;;48.17;23.95;;;;;;;;;;7336745;19;154025;-13
2022/03/05 23:22:00;;;;;;;46.53;23.85;;;;;;;;;;7337947;19;161905;-12
2022/03/05 23:24:31;;;;;;;47.88;25.10;;;;;;;;;;7335282;19;162297;-13
2022/03/05 23:27:04;;;;;;;49.15;24.60;;;;;;;;;;7337159;19;153803;-13
2022/03/05 23:29:36;;;;;;;45.47;22.98;;;;;;;;;;7337134;19;153669;-14
2022/03/05 23:32:11;;;;;;;42.25;23.20;;;;;;;;;;7336635;19;161732;-21
2022/03/05 23:34:43;;;;;;;45.70;23.50;;;;;;;;;;7333946;19;162395;-13
2022/03/05 23:37:14;;;;;;;50.13;23.02;;;;;;;;;;7336432;19;153647;-14
2022/03/05 23:39:46;;;;;;;46.10;23.25;;;;;;;;;;7337310;19;153602;-13
2022/03/05 23:42:18;;;;;;;48.78;23.27;;;;;;;;;;7335305;19;161825;-13
2022/03/05 23:44:49;;;;;;;46.72;22.92;;;;;;;;;;7333434;19;162444;-14
2022/03/05 23:47:24;;;;;;;47.40;22.40;;;;;;;;;;7335190;19;154105;-13
2022/03/05 23:49:55;;;;;;;43.03;21.38;;;;;;;;;;7336971;19;153506;-14
2022/03/05 23:52:28;;;;;;;45.55;20.55;;;;;;;;;;7334245;19;162037;-14
2022/03/05 23:55:00;;;;;;;40.08;20.33;;;;;;;;;;7330963;19;163014;-14
2022/03/05 23:57:32;;;;;;;42.20;22.92;;;;;;;;;;7335863;19;153819;-13
